createdAt,value
2022-11-13T00:00:33.341Z,6.40
2022-11-13T00:03:20.753Z,4.20
2022-11-13T00:06:08.170Z,6.23
2022-11-13T00:08:56.004Z,4.30
2022-11-13T00:11:44.360Z,4.17
2022-11-13T00:14:31.758Z,3.60
2022-11-13T00:17:18.504Z,3.80
2022-11-13T00:20:06.720Z,4.07
2022-11-13T00:22:53.795Z,4.10
2022-11-13T00:25:40.887Z,3.90
2022-11-13T00:28:29.206Z,3.80
2022-11-13T00:31:17.112Z,3.90
2022-11-13T00:34:46.028Z,3.90
2022-11-13T00:37:11.839Z,4.83
2022-11-13T00:39:59.846Z,4.13
2022-11-13T00:42:47.341Z,4.77
2022-11-13T00:45:35.850Z,4.10
2022-11-13T00:48:23.177Z,4.63
2022-11-13T00:51:10.389Z,4.10
2022-11-13T00:53:57.401Z,5.27
2022-11-13T00:56:44.514Z,8.07
2022-11-13T00:59:31.640Z,5.87
2022-11-13T01:02:19.775Z,4.60
2022-11-13T01:05:07.670Z,5.07
2022-11-13T01:07:55.576Z,5.20
2022-11-13T01:10:51.898Z,6.53
2022-11-13T01:13:41.365Z,5.40
2022-11-13T01:16:31.713Z,5.00
2022-11-13T01:19:19.701Z,4.70
2022-11-13T01:22:07.450Z,4.23
2022-11-13T01:24:54.733Z,3.57
2022-11-13T01:27:41.916Z,3.57
2022-11-13T01:30:28.987Z,4.73
2022-11-13T01:33:15.994Z,3.27
2022-11-13T01:36:08.341Z,4.03
2022-11-13T01:38:56.080Z,3.40
2022-11-13T01:41:43.596Z,3.00
2022-11-13T01:44:50.382Z,3.23
2022-11-13T01:47:37.881Z,3.50
2022-11-13T01:50:25.217Z,3.27
2022-11-13T01:53:13.886Z,3.20
2022-11-13T01:56:01.354Z,3.30
2022-11-13T01:58:54.559Z,3.00
2022-11-13T02:01:42.151Z,2.93
2022-11-13T02:04:31.118Z,3.47
2022-11-13T02:07:20.931Z,3.40
2022-11-13T02:10:10.501Z,3.10
2022-11-13T02:12:57.841Z,3.53
2022-11-13T02:15:47.030Z,4.23
2022-11-13T02:18:36.072Z,3.90
2022-11-13T02:21:38.892Z,3.90
2022-11-13T02:24:32.795Z,4.00
2022-11-13T02:27:25.132Z,4.00
2022-11-13T02:30:25.367Z,3.33
2022-11-13T02:33:27.240Z,3.70
2022-11-13T02:36:16.272Z,5.40
2022-11-13T02:39:09.836Z,9.33
2022-11-13T02:41:57.856Z,4.77
2022-11-13T02:44:44.576Z,4.80
2022-11-13T02:47:31.994Z,3.43
2022-11-13T02:50:19.850Z,2.60
2022-11-13T02:53:07.663Z,3.13
2022-11-13T02:55:54.631Z,3.23
2022-11-13T02:58:43.358Z,3.73
2022-11-13T03:01:30.360Z,3.73
2022-11-13T03:04:17.639Z,3.87
2022-11-13T03:07:05.106Z,4.07
2022-11-13T03:09:52.514Z,4.57
2022-11-13T03:12:40.715Z,4.20
2022-11-13T03:15:29.368Z,3.23
2022-11-13T03:18:16.481Z,2.93
2022-11-13T03:21:08.870Z,3.27
2022-11-13T03:23:56.132Z,2.97
2022-11-13T03:26:43.117Z,3.30
2022-11-13T03:29:30.501Z,3.33
2022-11-13T03:32:18.603Z,3.10
2022-11-13T03:35:06.713Z,3.80
2022-11-13T03:37:53.776Z,3.30
2022-11-13T03:40:41.188Z,3.40
2022-11-13T03:43:28.179Z,3.50
2022-11-13T03:46:15.556Z,3.10
2022-11-13T03:49:04.074Z,3.07
2022-11-13T03:51:51.032Z,3.60
2022-11-13T03:54:38.031Z,3.17
2022-11-13T03:57:25.210Z,3.37
2022-11-13T04:00:14.263Z,3.30
2022-11-13T04:03:01.193Z,3.30
2022-11-13T04:05:50.510Z,3.10
2022-11-13T04:08:37.614Z,3.00
2022-11-13T04:11:24.747Z,3.27
2022-11-13T04:14:11.425Z,3.10
2022-11-13T04:16:58.699Z,4.03
2022-11-13T04:19:45.809Z,4.30
2022-11-13T04:22:34.489Z,4.70
2022-11-13T04:25:21.863Z,4.93
2022-11-13T04:28:08.461Z,5.00
2022-11-13T04:30:56.518Z,5.07
2022-11-13T04:33:43.579Z,7.03
2022-11-13T04:36:30.679Z,5.10
2022-11-13T04:39:19.299Z,5.00
2022-11-13T04:42:24.570Z,5.43
2022-11-13T04:45:11.964Z,5.10
2022-11-13T04:47:59.198Z,5.20
2022-11-13T04:50:47.420Z,5.23
2022-11-13T04:53:34.702Z,5.17
2022-11-13T04:56:23.044Z,5.50
2022-11-13T04:59:10.384Z,5.17
2022-11-13T05:01:58.196Z,5.30
2022-11-13T05:04:45.174Z,5.50
2022-11-13T05:07:32.322Z,5.57
2022-11-13T05:10:19.179Z,4.87
2022-11-13T05:13:07.607Z,4.40
2022-11-13T05:16:02.542Z,4.67
2022-11-13T05:18:49.937Z,4.67
2022-11-13T05:21:40.121Z,6.10
2022-11-13T05:24:27.796Z,5.07
2022-11-13T05:27:17.570Z,4.73
2022-11-13T05:30:07.920Z,4.73
2022-11-13T05:32:54.911Z,4.80
2022-11-13T05:35:42.043Z,4.50
2022-11-13T05:38:30.669Z,4.13
2022-11-13T05:41:19.713Z,4.57
2022-11-13T05:44:06.819Z,4.50
2022-11-13T05:46:54.837Z,4.03
2022-11-13T05:49:41.784Z,4.73
2022-11-13T05:52:28.903Z,4.00
2022-11-13T05:55:15.946Z,4.07
2022-11-13T05:58:03.028Z,4.67
2022-11-13T06:00:50.172Z,5.03
2022-11-13T06:03:38.966Z,4.33
2022-11-13T06:06:27.244Z,4.20
2022-11-13T06:09:17.536Z,4.80
2022-11-13T06:12:04.738Z,4.43
2022-11-13T06:14:52.068Z,4.57
2022-11-13T06:17:38.698Z,3.97
2022-11-13T06:20:27.147Z,4.10
2022-11-13T06:23:14.171Z,4.80
2022-11-13T06:26:05.876Z,4.70
2022-11-13T06:28:53.947Z,5.27
2022-11-13T06:31:41.280Z,4.70
2022-11-13T06:34:28.531Z,4.77
2022-11-13T06:37:16.829Z,5.37
2022-11-13T06:40:04.131Z,5.00
2022-11-13T06:42:51.142Z,5.27
2022-11-13T06:45:38.380Z,5.37
2022-11-13T06:48:26.285Z,5.37
2022-11-13T06:51:17.347Z,5.77
2022-11-13T06:54:05.972Z,5.97
2022-11-13T06:56:53.318Z,6.30
2022-11-13T06:59:40.763Z,5.53
2022-11-13T07:02:27.471Z,6.50
2022-11-13T07:05:14.270Z,7.20
2022-11-13T07:08:01.503Z,7.57
2022-11-13T07:10:57.191Z,6.33
2022-11-13T07:13:44.123Z,6.77
2022-11-13T07:16:39.033Z,6.73
2022-11-13T07:19:37.288Z,6.60
2022-11-13T07:22:24.351Z,6.53
2022-11-13T07:25:11.616Z,6.90
2022-11-13T07:28:00.164Z,6.50
2022-11-13T07:30:47.432Z,6.77
2022-11-13T07:33:34.758Z,7.70
2022-11-13T07:36:21.752Z,6.73
2022-11-13T07:39:08.792Z,7.03
2022-11-13T07:41:55.903Z,6.80
2022-11-13T07:44:59.403Z,7.37
2022-11-13T07:47:46.720Z,8.13
2022-11-13T07:50:36.826Z,8.87
2022-11-13T07:53:24.383Z,9.47
2022-11-13T07:56:11.281Z,10.97
2022-11-13T07:58:58.779Z,11.17
2022-11-13T08:01:47.163Z,11.13
2022-11-13T08:04:34.556Z,11.60
2022-11-13T08:07:21.546Z,9.30
2022-11-13T08:10:09.778Z,9.00
2022-11-13T08:13:02.192Z,8.00
2022-11-13T08:15:49.188Z,6.67
2022-11-13T08:18:37.698Z,5.37
2022-11-13T08:21:25.103Z,4.67
2022-11-13T08:24:12.149Z,4.67
2022-11-13T08:26:59.423Z,4.20
2022-11-13T08:29:46.359Z,4.33
2022-11-13T08:32:33.302Z,4.37
2022-11-13T08:35:26.538Z,4.40
2022-11-13T08:38:16.200Z,4.53
2022-11-13T08:41:08.964Z,5.10
2022-11-13T08:43:57.170Z,5.13
2022-11-13T08:46:44.377Z,4.73
2022-11-13T08:49:32.275Z,4.80
2022-11-13T08:52:20.392Z,4.93
2022-11-13T08:55:07.914Z,4.83
2022-11-13T08:57:55.151Z,4.80
2022-11-13T09:00:42.419Z,5.32
2022-11-13T09:03:29.835Z,5.32
2022-11-13T09:06:17.240Z,5.82
2022-11-13T09:09:07.283Z,5.70
2022-11-13T09:11:54.649Z,5.20
2022-11-13T09:14:41.904Z,5.40
2022-11-13T09:17:29.136Z,5.50
2022-11-13T09:20:21.594Z,5.80
2022-11-13T09:23:10.631Z,6.28
2022-11-13T09:26:02.612Z,5.80
2022-11-13T09:28:49.727Z,6.27
2022-11-13T09:31:38.288Z,6.73
2022-11-13T09:34:28.248Z,7.00
2022-11-13T09:37:16.126Z,6.83
2022-11-13T09:40:02.912Z,6.47
2022-11-13T09:42:51.572Z,6.70
2022-11-13T09:45:41.055Z,7.60
2022-11-13T09:48:35.424Z,6.50
2022-11-13T09:51:28.691Z,5.73
2022-11-13T09:54:17.248Z,6.37
2022-11-13T09:57:24.577Z,5.90
2022-11-13T10:00:17.546Z,5.93
2022-11-13T10:03:33.425Z,6.05
2022-11-13T10:06:40.931Z,5.85
2022-11-13T10:09:38.046Z,5.68
2022-11-13T10:12:27.367Z,5.95
2022-11-13T10:15:18.535Z,5.47
2022-11-13T10:18:12.780Z,5.60
2022-11-13T10:21:21.214Z,5.32
2022-11-13T10:24:23.222Z,5.35
2022-11-13T10:27:11.456Z,5.38
2022-11-13T10:29:58.883Z,5.50
2022-11-13T10:32:48.777Z,4.90
2022-11-13T10:35:49.119Z,5.20
2022-11-13T10:38:42.936Z,4.20
2022-11-13T10:41:30.425Z,4.20
2022-11-13T10:44:23.163Z,4.03
2022-11-13T10:47:36.227Z,4.10
2022-11-13T10:50:30.846Z,4.03
2022-11-13T10:53:20.055Z,4.13
2022-11-13T10:56:21.857Z,3.73
2022-11-13T10:59:14.194Z,3.70
2022-11-13T11:02:18.054Z,3.43
2022-11-13T11:05:07.565Z,3.40
2022-11-13T11:07:58.217Z,3.47
2022-11-13T11:11:15.584Z,3.70
2022-11-13T11:14:21.566Z,4.20
2022-11-13T11:17:10.459Z,3.77
2022-11-13T11:20:01.812Z,3.73
2022-11-13T11:22:52.061Z,3.60
2022-11-13T11:25:48.349Z,3.50
2022-11-13T11:28:44.859Z,3.80
2022-11-13T11:31:38.211Z,3.53
2022-11-13T11:34:33.047Z,3.30
2022-11-13T11:37:22.548Z,3.50
2022-11-13T11:40:23.045Z,3.43
2022-11-13T11:43:21.041Z,3.60
2022-11-13T11:46:13.552Z,3.80
2022-11-13T11:49:02.529Z,3.40
2022-11-13T11:52:04.700Z,3.33
2022-11-13T11:55:01.824Z,3.77
2022-11-13T11:57:58.090Z,3.63
2022-11-13T12:00:52.440Z,3.80
2022-11-13T12:04:08.152Z,3.70
2022-11-13T12:07:14.070Z,3.73
2022-11-13T12:10:10.187Z,3.10
2022-11-13T12:13:08.797Z,3.42
2022-11-13T12:16:11.795Z,3.08
2022-11-13T12:19:05.981Z,3.20
2022-11-13T12:22:06.144Z,3.42
2022-11-13T12:25:09.531Z,3.30
2022-11-13T12:28:06.878Z,3.25
2022-11-13T12:31:15.562Z,3.22
2022-11-13T12:34:10.412Z,3.17
2022-11-13T12:36:59.309Z,3.10
2022-11-13T12:39:58.134Z,2.90
2022-11-13T12:42:50.667Z,3.05
2022-11-13T12:45:53.389Z,2.90
2022-11-13T12:48:44.122Z,2.83
2022-11-13T12:51:40.907Z,2.92
2022-11-13T12:54:29.981Z,3.03
2022-11-13T12:57:30.461Z,3.00
2022-11-13T13:00:29.434Z,3.08
2022-11-13T13:03:53.163Z,3.03
2022-11-13T13:06:54.588Z,3.05
2022-11-13T13:10:01.012Z,3.00
2022-11-13T13:12:59.646Z,3.05
2022-11-13T13:15:56.279Z,2.92
2022-11-13T13:18:43.064Z,2.65
2022-11-13T13:21:42.653Z,3.40
2022-11-13T13:24:36.054Z,3.00
2022-11-13T13:27:25.621Z,3.08
2022-11-13T13:30:22.443Z,3.30
2022-11-13T13:33:24.047Z,3.35
2022-11-13T13:36:25.682Z,3.00
2022-11-13T13:39:33.180Z,3.55
2022-11-13T13:42:40.521Z,3.05
2022-11-13T13:45:44.443Z,3.47
2022-11-13T13:48:32.963Z,3.53
2022-11-13T13:51:30.356Z,3.50
2022-11-13T13:54:23.404Z,3.45
2022-11-13T13:57:15.754Z,3.63
2022-11-13T14:00:03.393Z,3.40
2022-11-13T14:02:52.781Z,3.20
2022-11-13T14:05:40.181Z,3.38
2022-11-13T14:08:28.473Z,3.80
2022-11-13T14:11:26.782Z,3.35
2022-11-13T14:14:20.755Z,2.85
2022-11-13T14:17:10.614Z,3.35
2022-11-13T14:20:00.969Z,3.20
2022-11-13T14:22:56.403Z,3.60
2022-11-13T14:25:44.898Z,3.50
2022-11-13T14:28:34.942Z,3.40
2022-11-13T14:31:29.831Z,3.35
2022-11-13T14:34:21.438Z,3.55
2022-11-13T14:37:23.469Z,3.35
2022-11-13T14:40:22.566Z,3.15
2022-11-13T14:43:15.839Z,3.40
2022-11-13T14:46:06.456Z,3.88
2022-11-13T14:48:55.890Z,3.47
2022-11-13T14:51:43.017Z,3.85
2022-11-13T14:55:00.108Z,3.85
2022-11-13T14:57:49.221Z,3.88
2022-11-13T15:00:39.129Z,3.80
2022-11-13T15:03:28.655Z,3.50
2022-11-13T15:06:18.435Z,3.50
2022-11-13T15:09:12.244Z,3.72
2022-11-13T15:11:59.268Z,4.00
2022-11-13T15:14:46.551Z,4.15
2022-11-13T15:17:33.925Z,3.70
2022-11-13T15:20:26.732Z,3.83
2022-11-13T15:23:16.635Z,4.00
2022-11-13T15:26:03.658Z,4.07
2022-11-13T15:28:50.971Z,3.83
2022-11-13T15:31:42.608Z,3.83
2022-11-13T15:34:29.774Z,4.03
2022-11-13T15:37:18.895Z,4.30
2022-11-13T15:40:06.738Z,4.30
2022-11-13T15:42:53.821Z,4.10
2022-11-13T15:45:44.188Z,4.20
2022-11-13T15:48:32.086Z,4.30
2022-11-13T15:51:23.749Z,4.17
2022-11-13T15:54:24.303Z,4.47
2022-11-13T15:57:21.925Z,3.87
2022-11-13T16:00:15.644Z,4.50
2022-11-13T16:03:04.652Z,4.33
2022-11-13T16:05:51.868Z,4.50
2022-11-13T16:08:39.007Z,4.37
2022-11-13T16:11:27.334Z,4.40
2022-11-13T16:14:14.416Z,4.60
2022-11-13T16:17:01.353Z,4.63
2022-11-13T16:19:51.550Z,4.97
2022-11-13T16:22:38.535Z,5.20
2022-11-13T16:25:26.292Z,4.70
2022-11-13T16:28:17.302Z,4.47
2022-11-13T16:31:04.043Z,4.87
2022-11-13T16:33:51.704Z,5.00
2022-11-13T16:36:39.054Z,4.80
2022-11-13T16:39:25.935Z,5.00
2022-11-13T16:42:13.457Z,5.57
2022-11-13T16:45:01.660Z,5.70
2022-11-13T16:47:50.634Z,5.80
2022-11-13T16:50:39.670Z,5.80
2022-11-13T16:53:27.027Z,5.63
2022-11-13T16:56:17.085Z,6.20
2022-11-13T16:59:04.572Z,5.77
2022-11-13T17:01:56.728Z,5.77
2022-11-13T17:04:45.309Z,6.43
2022-11-13T17:07:32.916Z,6.47
2022-11-13T17:10:33.181Z,6.43
2022-11-13T17:13:20.823Z,6.70
2022-11-13T17:16:08.249Z,6.87
2022-11-13T17:18:57.203Z,6.90
2022-11-13T17:21:44.720Z,7.13
2022-11-13T17:24:31.884Z,6.63
2022-11-13T17:27:19.113Z,7.40
2022-11-13T17:30:07.235Z,7.70
2022-11-13T17:32:54.504Z,6.57
2022-11-13T17:35:42.990Z,6.60
2022-11-13T17:38:30.736Z,7.27
2022-11-13T17:41:18.816Z,6.83
2022-11-13T17:44:06.585Z,7.10
2022-11-13T17:46:53.488Z,6.67
2022-11-13T17:49:40.773Z,7.40
2022-11-13T17:52:29.056Z,6.70
2022-11-13T17:55:16.011Z,7.30
2022-11-13T17:58:03.240Z,6.90
2022-11-13T18:00:50.697Z,7.30
2022-11-13T18:03:37.749Z,6.90
2022-11-13T18:06:25.687Z,6.70
2022-11-13T18:09:14.320Z,6.83
2022-11-13T18:12:01.461Z,7.27
2022-11-13T18:14:52.390Z,7.83
2022-11-13T18:17:39.346Z,6.80
2022-11-13T18:20:27.875Z,6.87
2022-11-13T18:23:15.641Z,7.17
2022-11-13T18:26:11.279Z,7.07
2022-11-13T18:28:59.009Z,7.40
2022-11-13T18:31:46.436Z,7.27
2022-11-13T18:34:33.907Z,7.07
2022-11-13T18:37:21.195Z,7.83
2022-11-13T18:40:10.404Z,7.53
2022-11-13T18:42:58.397Z,7.47
2022-11-13T18:45:45.175Z,7.40
2022-11-13T18:48:33.420Z,7.90
2022-11-13T18:51:24.167Z,7.53
2022-11-13T18:54:12.822Z,7.40
2022-11-13T18:57:00.066Z,7.10
2022-11-13T18:59:48.146Z,8.30
2022-11-13T19:02:35.158Z,7.73
2022-11-13T19:05:22.268Z,8.33
2022-11-13T19:08:09.275Z,7.07
2022-11-13T19:10:55.942Z,7.27
2022-11-13T19:13:45.350Z,7.57
2022-11-13T19:16:36.657Z,7.00
2022-11-13T19:19:25.011Z,7.37
2022-11-13T19:22:12.034Z,6.70
2022-11-13T19:24:59.123Z,7.40
2022-11-13T19:27:46.090Z,7.20
2022-11-13T19:30:33.208Z,7.07
2022-11-13T19:33:22.048Z,6.80
2022-11-13T19:36:12.365Z,7.67
2022-11-13T19:38:59.938Z,7.10
2022-11-13T19:41:47.179Z,6.63
2022-11-13T19:44:34.196Z,7.17
2022-11-13T19:47:21.056Z,7.00
2022-11-13T19:50:10.739Z,7.80
2022-11-13T19:52:57.946Z,7.93
2022-11-13T19:55:44.647Z,7.23
2022-11-13T19:58:32.227Z,8.50
2022-11-13T20:01:21.520Z,7.60
2022-11-13T20:04:08.476Z,7.97
2022-11-13T20:06:56.776Z,7.60
2022-11-13T20:09:44.185Z,7.80
2022-11-13T20:12:31.770Z,8.63
2022-11-13T20:15:18.780Z,7.83
2022-11-13T20:18:06.480Z,7.83
2022-11-13T20:20:55.116Z,6.83
2022-11-13T20:23:43.259Z,7.60
2022-11-13T20:26:30.295Z,7.67
2022-11-13T20:29:17.487Z,7.73
2022-11-13T20:32:04.645Z,8.00
2022-11-13T20:34:51.906Z,8.07
2022-11-13T20:37:38.952Z,8.17
2022-11-13T20:40:27.221Z,7.90
2022-11-13T20:43:14.281Z,8.77
2022-11-13T20:46:05.632Z,8.00
2022-11-13T20:48:52.540Z,8.83
2022-11-13T20:51:39.968Z,8.27
2022-11-13T20:54:27.547Z,7.23
2022-11-13T20:57:17.096Z,7.30
2022-11-13T21:00:03.799Z,7.60
2022-11-13T21:02:52.268Z,7.70
2022-11-13T21:05:39.462Z,7.17
2022-11-13T21:08:26.803Z,8.20
2022-11-13T21:11:18.914Z,8.10
2022-11-13T21:14:07.501Z,6.57
2022-11-13T21:16:54.452Z,6.87
2022-11-13T21:19:41.327Z,7.50
2022-11-13T21:22:28.713Z,6.97
2022-11-13T21:25:17.685Z,6.70
2022-11-13T21:28:06.484Z,6.40
2022-11-13T21:30:55.094Z,6.60
2022-11-13T21:33:43.964Z,6.23
2022-11-13T21:36:31.076Z,7.20
2022-11-13T21:39:18.508Z,6.13
2022-11-13T21:42:05.510Z,5.80
2022-11-13T21:44:52.856Z,6.77
2022-11-13T21:47:40.919Z,6.47
2022-11-13T21:50:28.079Z,7.23
2022-11-13T21:53:14.976Z,7.93
2022-11-13T21:56:02.101Z,9.17
2022-11-13T21:58:49.487Z,9.67
2022-11-13T22:01:38.868Z,9.63
2022-11-13T22:04:27.787Z,10.10
2022-11-13T22:07:15.059Z,10.47
2022-11-13T22:10:07.989Z,10.00
2022-11-13T22:12:55.312Z,10.27
2022-11-13T22:15:42.657Z,10.07
2022-11-13T22:18:29.997Z,10.53
2022-11-13T22:21:18.984Z,10.13
2022-11-13T22:24:06.520Z,9.57
2022-11-13T22:26:54.173Z,9.57
2022-11-13T22:29:41.163Z,9.57
2022-11-13T22:32:28.424Z,9.93
2022-11-13T22:35:15.956Z,8.53
2022-11-13T22:38:05.710Z,9.07
2022-11-13T22:40:52.386Z,9.73
2022-11-13T22:43:42.332Z,9.00
2022-11-13T22:46:31.336Z,9.53
2022-11-13T22:49:19.161Z,8.87
2022-11-13T22:52:06.348Z,9.30
2022-11-13T22:54:54.534Z,8.70
2022-11-13T22:57:41.626Z,9.27
2022-11-13T23:00:28.640Z,8.60
2022-11-13T23:03:15.695Z,9.50
2022-11-13T23:06:03.684Z,9.40
2022-11-13T23:08:51.440Z,8.70
2022-11-13T23:11:42.368Z,9.37
2022-11-13T23:14:29.066Z,9.47
2022-11-13T23:17:16.245Z,8.87
2022-11-13T23:20:03.674Z,9.43
2022-11-13T23:22:50.923Z,9.23
2022-11-13T23:25:38.163Z,10.17
2022-11-13T23:28:26.697Z,9.87
2022-11-13T23:31:14.810Z,10.30
2022-11-13T23:34:03.109Z,9.90
2022-11-13T23:36:50.426Z,9.53
2022-11-13T23:39:37.502Z,10.03
2022-11-13T23:42:45.719Z,9.80
2022-11-13T23:45:32.243Z,11.90
2022-11-13T23:48:20.026Z,13.53
2022-11-13T23:51:07.038Z,13.37
2022-11-13T23:53:54.444Z,13.20
2022-11-13T23:56:41.415Z,11.73
2022-11-13T23:59:28.405Z,10.20
